Detall de PIREP

Printer-friendly versionPDF version

[2012/11/23 07:40:00]
Flight IATA:CT3240
Pilot Number:011
Company ICAO:CAT
Aircraft Type:F28/A
PAX:85
Departing Airport: LEPA
Destination Airport: LIRF
Alternate Airport:LIRN
Online: VATSIM
Route:MORSS UM603 ALG UL5 VALMA
Flight Level:F300
No Slew and time accel
No pause
Crash detect
Detect pilot in Cockpit between each 30 and 45 minutes
07:40 Zero fuel Weight: 58656 Lbs, Fuel Weight: 12572 Lbs
07:40 VATSIM:LEPA 230630Z 00000KT 9999 FEW016 09/09 Q1022 NOSIG
07:40 VATSIM:LIRF 230620Z 03003KT 6000 NSC 10/09 Q1022 NOSIG
07:42 Parking Brakes off
07:54 Take-off
07:54 Take off Weight: 70622 Lbs
07:54 Wind: 325º @ 000 Knots Heading: 238º
07:54 POS N39º 32´ 53´´ E002º 44´ 46´´
07:54 Gear Up: 159 Knots
07:54 Flaps:2 at 159 Knots
07:55 Flaps:1 at 228 Knots
07:55 Flaps:0 at 247 Knots
08:09 Wind:313º@003 Knots Heading: 062º Ground Speed: 365 Knots Altitude 27887 ft
08:11 TOC
08:11 Fuel Weight: 9785 Lb
08:24 Wind:325º@009 Knots Heading: 075º Ground Speed: 450 Knots Altitude 30265 ft
08:39 Wind:233º@013 Knots Heading: 067º Ground Speed: 457 Knots Altitude 30291 ft
08:54 Wind:105º@001 Knots Heading: 068º Ground Speed: 450 Knots Altitude 30262 ft
08:54 TOD
08:54 Fuel Weight: 6379 Lb
09:10 Wind:108º@008 Knots Heading: 318º Ground Speed: 274 Knots Altitude 5918 ft
09:15 Flaps:1 at 232 Knots
09:15 Flaps:2 at 228 Knots
09:15 Flaps:3 at 220 Knots
09:15 Gear Down: 214 Knots
09:16 Flaps:4 at 165 Knots
09:16 Flaps:5 at 145 Knots
09:17 TouchDown:Rate -146 ft/min Speed: 107 Knots
09:18 VATSIM:LIRF 230820Z 06004KT 6000 NSC 13/12 Q1023 NOSIG
09:18 Land
09:18 Wind:060º@004 Knots
09:18 Heading: 341º
09:18 Flight Duration: 01:24
09:18 Landing Weight: 64264 Lbs
09:18 POS N41º 49´ 23´´ E012º 16´ 03´´
09:19 Parking brakes on
09:19 Block to Block Duration: 01:37
09:19 Final Fuel: 5568 Lbls
09:19 Spent Fuel: 7003 Lbls
09:19 Flight Length: 236 NM
09:19 TOD Land Length: 27 NM

Exportar CSV

Powered by Drupal - Modified by Danger4k